Weather History for KF05 - November, 2012

Change the Weather History Date:

Saturday, November 17, 2012

  Actual Average (KLTS) Record (KLTS)
Temperature  
Mean Temperature 53 °F -  
Max Temperature 69 °F 59 °F 80 °F (1999)
Min Temperature 37 °F 37 °F 18 °F (2014)
Degree Days  
Heating Degree Days 12    
Growing Degree Days 3 (Base 50)    
Moisture  
Dew Point 30 °F    
Average Humidity 45    
Maximum Humidity 67    
Minimum Humidity 25    
Precipitation  
Precipitation 0.00 in - - ()
Sea Level Pressure  
Sea Level Pressure 30.29 in    
Wind  
Wind Speed 6 mph (SSE)    
Max Wind Speed 16 mph    
Max Gust Speed 21 mph    
Visibility 10 miles    
Events      
Averages and records for this station are not official NWS values.
T = Trace of Precipitation, MM = Missing Value Source: NWS Daily Summary

Daily Weather History Graph

Daily Weather History Graph

Search for Another Location

Airport or City:

Trip Planner

Search our weather history database for the weather conditions in past years. The results will help you decide how hot, cold, wet, or windy it might be!

Date:

Astronomy

Nov. 17, 2012 Rise Set
Actual Time 7:12 AM CST 5:31 PM CST
Civil Twilight 6:45 AM CST 5:58 PM CST
Nautical Twilight 6:15 AM CST 6:28 PM CST
Astronomical Twilight 5:45 AM CST 6:58 PM CST
Moon 10:58 AM CST (11/17) 9:42 PM CST (11/17)
Length of Visible Light 11h 12m
Length of Day
10h 19m
Waxing Crescent, 20% of the Moon is Illuminated
Nov 17
Waxing Crescent
Nov 20
First Quarter
Nov 28
Full
Dec 6
Last Quarter
Dec 13
New

Hourly Weather History & Observations

Time (CST) Temp. Windchill Dew Point Humidity Pressure Visibility Wind Dir Wind Speed Gust Speed Precip Events Conditions
12:15 AM 45.0 °F 42.6 °F 29.3 °F 54% 30.34 in 10.0 mi SSE 4.6 mph - N/A   Clear
12:35 AM 44.4 °F 42.9 °F 29.3 °F 55% 30.34 in 10.0 mi South 3.5 mph - N/A   Clear
12:55 AM 44.1 °F 41.5 °F 30.0 °F 58% 30.34 in 10.0 mi South 4.6 mph - N/A   Clear
1:15 AM 44.6 °F - 30.2 °F 57% 30.33 in 10.0 mi Calm Calm - N/A   Clear
1:35 AM 44.1 °F - 30.2 °F 58% 30.33 in 10.0 mi Calm Calm - N/A   Clear
1:55 AM 44.2 °F 42.7 °F 30.2 °F 58% 30.33 in 10.0 mi SSE 3.5 mph - N/A   Clear
2:15 AM 44.6 °F 43.1 °F 30.2 °F 57% 30.33 in 10.0 mi SSE 3.5 mph - N/A   Clear
2:35 AM 43.5 °F 40.1 °F 29.8 °F 59% 30.33 in 10.0 mi South 5.8 mph - N/A   Clear
2:55 AM 42.1 °F 38.4 °F 29.3 °F 61% 30.33 in 10.0 mi South 5.8 mph - N/A   Clear
3:15 AM 42.3 °F 39.4 °F 29.7 °F 61% 30.33 in 10.0 mi South 4.6 mph - N/A   Clear
3:35 AM 41.7 °F - 29.3 °F 61% 30.33 in 10.0 mi Calm Calm - N/A   Clear
3:55 AM 41.4 °F - 29.3 °F 62% 30.33 in 10.0 mi Calm Calm - N/A   Clear
4:15 AM 42.1 °F - 29.3 °F 61% 30.33 in 10.0 mi Calm Calm - N/A   Clear
4:35 AM 42.1 °F 39.2 °F 29.3 °F 61% 30.33 in 10.0 mi South 4.6 mph - N/A   Clear
4:55 AM 42.4 °F - 29.1 °F 59% 30.33 in 10.0 mi Calm Calm - N/A   Clear
5:15 AM 41.2 °F - 29.3 °F 63% 30.33 in 10.0 mi Calm Calm - N/A   Clear
5:35 AM 40.1 °F 38.0 °F 28.8 °F 64% 30.33 in 10.0 mi ESE 3.5 mph - N/A   Clear
5:55 AM 39.7 °F - 28.6 °F 64% 30.33 in 10.0 mi Calm Calm - N/A   Clear
6:15 AM 39.4 °F - 28.6 °F 65% 30.33 in 10.0 mi Calm Calm - N/A   Clear
6:35 AM 39.2 °F 37.0 °F 28.2 °F 65% 30.33 in 10.0 mi East 3.5 mph - N/A   Clear
7:15 AM 39.6 °F 36.3 °F 28.8 °F 65% 30.34 in 10.0 mi SE 4.6 mph - N/A   Scattered Clouds
7:35 AM 39.0 °F - 27.9 °F 64% 30.35 in 10.0 mi Calm Calm - N/A   Scattered Clouds
7:55 AM 37.8 °F - 27.5 °F 67% 30.36 in 10.0 mi Calm Calm - N/A   Clear
8:15 AM 39.2 °F - 28.9 °F 67% 30.36 in 10.0 mi Calm Calm - N/A   Clear
8:35 AM 41.4 °F 39.4 °F 30.2 °F 65% 30.36 in 10.0 mi South 3.5 mph - N/A   Clear
8:55 AM 44.4 °F 42.0 °F 30.9 °F 59% 30.36 in 10.0 mi SE 4.6 mph - N/A   Clear
9:15 AM 47.3 °F - 31.3 °F 54% 30.36 in 10.0 mi SSE 6.9 mph - N/A   Clear
9:35 AM 49.8 °F - 31.1 °F 49% 30.36 in 10.0 mi SSE 6.9 mph - N/A   Clear
9:55 AM 53.2 °F - 30.7 °F 42% 30.35 in 10.0 mi SSE 9.2 mph - N/A   Clear
10:15 AM 56.3 °F - 29.1 °F 35% 30.35 in 10.0 mi South 12.7 mph - N/A   Clear
10:35 AM 57.9 °F - 28.9 °F 33% 30.35 in 10.0 mi South 15.0 mph - N/A   Clear
10:55 AM 59.7 °F - 28.9 °F 31% 30.35 in 10.0 mi South 16.1 mph - N/A   Clear
12:15 PM 64.8 °F - 29.8 °F 27% 30.33 in 10.0 mi South 13.8 mph 18.4 mph N/A   Clear
12:35 PM 65.7 °F - 30.7 °F 27% 30.31 in 10.0 mi South 9.2 mph - N/A   Clear
12:55 PM 66.2 °F - 31.1 °F 27% 30.30 in 10.0 mi South 11.5 mph 17.3 mph N/A   Clear
1:35 PM 67.8 °F - 32.0 °F 26% 30.27 in 10.0 mi South 12.7 mph 18.4 mph N/A   Clear
1:55 PM 68.4 °F - 32.0 °F 26% 30.26 in 10.0 mi South 9.2 mph 18.4 mph N/A   Clear
2:15 PM 68.9 °F - 32.0 °F 25% 30.25 in 10.0 mi South 13.8 mph 20.7 mph N/A   Clear
2:35 PM 69.1 °F - 32.4 °F 26% 30.24 in 10.0 mi South 11.5 mph - N/A   Clear
2:55 PM 69.3 °F - 32.5 °F 26% 30.23 in 10.0 mi South 15.0 mph - N/A   Clear
3:55 PM 69.6 °F - 34.2 °F 27% 30.23 in 10.0 mi SSE 16.1 mph - N/A   Clear
4:15 PM 69.1 °F - 34.3 °F 28% 30.23 in 10.0 mi South 12.7 mph - N/A   Clear
4:35 PM 68.7 °F - 34.9 °F 29% 30.23 in 10.0 mi SSE 13.8 mph - N/A   Clear
4:55 PM 67.6 °F - 34.3 °F 29% 30.22 in 10.0 mi SSE 12.7 mph - N/A   Clear
5:15 PM 66.9 °F - 33.3 °F 29% 30.22 in 10.0 mi SSE 10.4 mph - N/A   Clear
5:35 PM 65.3 °F - 33.1 °F 30% 30.22 in 10.0 mi SE 11.5 mph - N/A   Clear
5:55 PM 63.3 °F - 32.2 °F 31% 30.22 in 10.0 mi SE 9.2 mph - N/A   Clear
6:15 PM 61.3 °F - 31.5 °F 32% 30.23 in 10.0 mi SE 9.2 mph - N/A   Clear
6:35 PM 59.9 °F - 31.1 °F 34% 30.22 in 10.0 mi SE 9.2 mph - N/A   Clear
7:35 PM 57.0 °F - 30.0 °F 36% 30.23 in 10.0 mi SE 9.2 mph - N/A   Clear
7:55 PM 56.1 °F - 29.7 °F 36% 30.22 in 10.0 mi SE 8.1 mph - N/A   Clear
8:15 PM 54.7 °F - 29.3 °F 38% 30.23 in 10.0 mi SE 10.4 mph - N/A   Clear
8:35 PM 54.5 °F - 27.9 °F 36% 30.22 in 10.0 mi SE 11.5 mph - N/A   Clear
8:55 PM 54.5 °F - 26.8 °F 34% 30.23 in 10.0 mi SSE 9.2 mph - N/A   Clear
9:15 PM 53.6 °F - 26.4 °F 35% 30.23 in 10.0 mi SSE 9.2 mph - N/A   Clear
9:35 PM 53.6 °F - 26.6 °F 35% 30.23 in 10.0 mi SSE 10.4 mph - N/A   Clear
9:55 PM 54.1 °F - 26.4 °F 34% 30.23 in 10.0 mi SSE 10.4 mph - N/A   Clear
10:15 PM 54.1 °F - 26.6 °F 35% 30.23 in 10.0 mi SSE 10.4 mph - N/A   Clear
10:35 PM 53.4 °F - 26.6 °F 36% 30.23 in 10.0 mi SSE 8.1 mph - N/A   Clear
10:55 PM 52.2 °F - 26.8 °F 37% 30.23 in 10.0 mi SSE 8.1 mph - N/A   Clear
11:15 PM 51.8 °F - 27.1 °F 39% 30.23 in 10.0 mi SSE 8.1 mph - N/A   Clear
11:35 PM 51.1 °F - 27.3 °F 40% 30.23 in 10.0 mi SE 8.1 mph - N/A   Clear
11:55 PM 50.4 °F - 27.5 °F 41% 30.23 in 10.0 mi SE 5.8 mph - N/A   Clear